sensor_id;sensor_type;location;lat;lon;timestamp;pressure;altitude;pressure_sealevel;temperature;humidity
22647;BME280;11490;42.726;23.268;2023-11-21T00:02:10;95078.03;;;4.08;100.00
22647;BME280;11490;42.726;23.268;2023-11-21T00:04:35;95076.38;;;3.94;100.00
22647;BME280;11490;42.726;23.268;2023-11-21T00:07:00;95074.31;;;3.90;100.00
22647;BME280;11490;42.726;23.268;2023-11-21T00:09:26;95080.84;;;3.87;100.00
22647;BME280;11490;42.726;23.268;2023-11-21T00:11:51;95072.75;;;4.08;100.00
22647;BME280;11490;42.726;23.268;2023-11-21T00:14:16;95078.41;;;3.92;100.00
22647;BME280;11490;42.726;23.268;2023-11-21T00:16:42;95078.41;;;3.92;100.00
22647;BME280;11490;42.726;23.268;2023-11-21T00:19:07;95075.34;;;3.95;100.00
22647;BME280;11490;42.726;23.268;2023-11-21T00:21:32;95070.03;;;3.69;100.00
22647;BME280;11490;42.726;23.268;2023-11-21T00:23:58;95080.03;;;3.86;100.00
22647;BME280;11490;42.726;23.268;2023-11-21T00:26:23;95078.78;;;3.82;100.00
22647;BME280;11490;42.726;23.268;2023-11-21T00:28:50;95074.03;;;3.65;100.00
22647;BME280;11490;42.726;23.268;2023-11-21T00:31:15;95070.81;;;3.63;100.00
22647;BME280;11490;42.726;23.268;2023-11-21T00:33:41;95070.19;;;3.61;100.00
22647;BME280;11490;42.726;23.268;2023-11-21T00:36:07;95073.28;;;3.71;100.00
22647;BME280;11490;42.726;23.268;2023-11-21T00:38:35;95072.50;;;3.90;100.00
22647;BME280;11490;42.726;23.268;2023-11-21T00:41:00;95069.84;;;3.77;100.00
22647;BME280;11490;42.726;23.268;2023-11-21T00:43:26;95069.41;;;3.67;100.00
22647;BME280;11490;42.726;23.268;2023-11-21T00:45:51;95074.66;;;3.67;100.00
22647;BME280;11490;42.726;23.268;2023-11-21T00:48:17;95084.06;;;3.89;100.00
22647;BME280;11490;42.726;23.268;2023-11-21T00:50:43;95072.31;;;3.98;100.00
22647;BME280;11490;42.726;23.268;2023-11-21T00:53:09;95060.94;;;3.84;100.00
22647;BME280;11490;42.726;23.268;2023-11-21T00:55:34;95059.94;;;3.92;100.00
22647;BME280;11490;42.726;23.268;2023-11-21T00:58:00;95054.00;;;3.77;100.00
22647;BME280;11490;42.726;23.268;2023-11-21T01:00:27;95053.22;;;3.83;100.00
22647;BME280;11490;42.726;23.268;2023-11-21T01:02:53;95057.66;;;3.69;100.00
22647;BME280;11490;42.726;23.268;2023-11-21T01:05:18;95044.50;;;3.28;100.00
22647;BME280;11490;42.726;23.268;2023-11-21T01:07:45;95050.91;;;3.54;100.00
22647;BME280;11490;42.726;23.268;2023-11-21T01:10:10;95049.91;;;3.55;100.00
22647;BME280;11490;42.726;23.268;2023-11-21T01:12:36;95056.72;;;3.36;100.00
22647;BME280;11490;42.726;23.268;2023-11-21T01:15:06;95050.28;;;3.52;100.00
22647;BME280;11490;42.726;23.268;2023-11-21T01:17:37;95050.06;;;3.40;100.00
22647;BME280;11490;42.726;23.268;2023-11-21T01:20:04;95064.41;;;3.31;100.00
22647;BME280;11490;42.726;23.268;2023-11-21T01:22:36;95054.59;;;3.18;100.00
22647;BME280;11490;42.726;23.268;2023-11-21T01:25:01;95050.72;;;3.07;100.00
22647;BME280;11490;42.726;23.268;2023-11-21T01:27:29;95044.06;;;3.18;100.00
22647;BME280;11490;42.726;23.268;2023-11-21T01:29:55;95056.69;;;3.29;100.00
22647;BME280;11490;42.726;23.268;2023-11-21T01:32:20;95047.88;;;3.09;100.00
22647;BME280;11490;42.726;23.268;2023-11-21T01:34:45;95056.09;;;3.34;100.00
22647;BME280;11490;42.726;23.268;2023-11-21T01:37:11;95063.53;;;3.17;100.00
22647;BME280;11490;42.726;23.268;2023-11-21T01:39:37;95073.09;;;3.25;100.00
22647;BME280;11490;42.726;23.268;2023-11-21T01:42:04;95068.44;;;3.33;100.00
22647;BME280;11490;42.726;23.268;2023-11-21T01:44:30;95053.03;;;3.24;100.00
22647;BME280;11490;42.726;23.268;2023-11-21T01:46:56;95041.88;;;3.28;100.00
22647;BME280;11490;42.726;23.268;2023-11-21T01:49:23;95037.50;;;3.01;100.00
22647;BME280;11490;42.726;23.268;2023-11-21T01:51:49;95049.28;;;3.05;100.00
22647;BME280;11490;42.726;23.268;2023-11-21T01:54:17;95032.59;;;2.91;100.00
22647;BME280;11490;42.726;23.268;2023-11-21T01:56:47;95049.22;;;2.92;100.00
22647;BME280;11490;42.726;23.268;2023-11-21T01:59:18;95059.00;;;3.04;100.00
22647;BME280;11490;42.726;23.268;2023-11-21T02:01:45;95049.22;;;2.92;100.00
22647;BME280;11490;42.726;23.268;2023-11-21T02:04:12;95048.38;;;2.85;100.00
22647;BME280;11490;42.726;23.268;2023-11-21T02:06:37;95052.22;;;2.89;100.00
22647;BME280;11490;42.726;23.268;2023-11-21T02:09:04;95050.72;;;2.73;100.00
22647;BME280;11490;42.726;23.268;2023-11-21T02:11:30;95046.09;;;2.47;100.00
22647;BME280;11490;42.726;23.268;2023-11-21T02:13:56;95046.97;;;2.54;100.00
22647;BME280;11490;42.726;23.268;2023-11-21T02:16:24;95045.13;;;2.55;100.00
22647;BME280;11490;42.726;23.268;2023-11-21T02:18:51;95045.41;;;2.66;100.00
22647;BME280;11490;42.726;23.268;2023-11-21T02:21:17;95054.16;;;2.74;100.00
22647;BME280;11490;42.726;23.268;2023-11-21T02:23:42;95044.88;;;2.50;100.00
22647;BME280;11490;42.726;23.268;2023-11-21T02:26:10;95042.53;;;2.61;100.00
22647;BME280;11490;42.726;23.268;2023-11-21T02:28:36;95031.63;;;2.64;100.00
22647;BME280;11490;42.726;23.268;2023-11-21T02:31:02;95040.47;;;2.57;100.00
22647;BME280;11490;42.726;23.268;2023-11-21T02:33:29;95042.16;;;2.64;100.00
22647;BME280;11490;42.726;23.268;2023-11-21T02:35:55;95036.25;;;2.97;100.00
22647;BME280;11490;42.726;23.268;2023-11-21T02:38:21;95047.81;;;2.96;100.00
22647;BME280;11490;42.726;23.268;2023-11-21T02:40:47;95047.81;;;2.96;100.00
22647;BME280;11490;42.726;23.268;2023-11-21T02:43:14;95029.78;;;2.93;100.00
22647;BME280;11490;42.726;23.268;2023-11-21T02:45:39;95038.28;;;2.95;100.00
22647;BME280;11490;42.726;23.268;2023-11-21T02:48:07;95035.72;;;2.74;100.00
22647;BME280;11490;42.726;23.268;2023-11-21T02:50:32;95031.91;;;2.48;100.00
22647;BME280;11490;42.726;23.268;2023-11-21T02:52:58;95050.97;;;2.50;100.00
22647;BME280;11490;42.726;23.268;2023-11-21T02:55:26;95037.88;;;2.63;100.00
22647;BME280;11490;42.726;23.268;2023-11-21T02:57:51;95034.94;;;2.80;100.00
22647;BME280;11490;42.726;23.268;2023-11-21T03:00:17;95041.94;;;2.94;100.00
22647;BME280;11490;42.726;23.268;2023-11-21T03:02:43;95040.75;;;3.03;100.00
22647;BME280;11490;42.726;23.268;2023-11-21T03:05:09;95035.16;;;2.50;100.00
22647;BME280;11490;42.726;23.268;2023-11-21T03:07:36;95033.69;;;2.69;100.00
22647;BME280;11490;42.726;23.268;2023-11-21T03:10:02;95035.81;;;2.52;100.00
22647;BME280;11490;42.726;23.268;2023-11-21T03:12:29;95041.91;;;2.59;100.00
22647;BME280;11490;42.726;23.268;2023-11-21T03:14:54;95033.16;;;2.52;100.00
22647;BME280;11490;42.726;23.268;2023-11-21T03:17:20;95043.47;;;2.82;100.00
22647;BME280;11490;42.726;23.268;2023-11-21T03:19:46;95041.28;;;2.57;100.00
22647;BME280;11490;42.726;23.268;2023-11-21T03:22:11;95042.59;;;2.68;100.00
22647;BME280;11490;42.726;23.268;2023-11-21T03:24:37;95039.66;;;2.56;100.00
22647;BME280;11490;42.726;23.268;2023-11-21T03:27:04;95045.84;;;2.70;100.00
22647;BME280;11490;42.726;23.268;2023-11-21T03:29:29;95049.28;;;2.70;100.00
22647;BME280;11490;42.726;23.268;2023-11-21T03:31:54;95055.34;;;2.71;100.00
22647;BME280;11490;42.726;23.268;2023-11-21T03:34:25;95040.69;;;2.55;100.00
22647;BME280;11490;42.726;23.268;2023-11-21T03:36:53;95041.56;;;2.41;100.00
22647;BME280;11490;42.726;23.268;2023-11-21T03:39:22;95040.88;;;2.54;100.00
22647;BME280;11490;42.726;23.268;2023-11-21T03:41:48;95051.53;;;2.74;100.00
22647;BME280;11490;42.726;23.268;2023-11-21T03:44:14;95030.47;;;2.74;100.00
22647;BME280;11490;42.726;23.268;2023-11-21T03:46:39;95027.97;;;2.65;100.00
22647;BME280;11490;42.726;23.268;2023-11-21T03:49:05;95025.78;;;2.41;100.00
22647;BME280;11490;42.726;23.268;2023-11-21T03:51:30;95016.13;;;2.48;100.00
22647;BME280;11490;42.726;23.268;2023-11-21T03:53:56;95020.34;;;2.70;100.00
22647;BME280;11490;42.726;23.268;2023-11-21T03:56:21;95015.97;;;2.56;100.00
22647;BME280;11490;42.726;23.268;2023-11-21T03:58:47;95028.75;;;2.59;100.00
22647;BME280;11490;42.726;23.268;2023-11-21T04:01:23;95037.34;;;2.75;100.00
22647;BME280;11490;42.726;23.268;2023-11-21T04:03:49;95018.81;;;2.96;100.00
22647;BME280;11490;42.726;23.268;2023-11-21T04:06:16;95025.03;;;3.16;100.00
22647;BME280;11490;42.726;23.268;2023-11-21T04:08:43;95017.16;;;2.88;100.00
22647;BME280;11490;42.726;23.268;2023-11-21T04:11:09;95027.53;;;2.96;100.00
22647;BME280;11490;42.726;23.268;2023-11-21T04:13:37;95018.59;;;2.91;100.00
22647;BME280;11490;42.726;23.268;2023-11-21T04:16:02;95008.44;;;2.47;100.00
22647;BME280;11490;42.726;23.268;2023-11-21T04:18:28;95026.66;;;2.48;100.00
22647;BME280;11490;42.726;23.268;2023-11-21T04:20:53;95027.56;;;2.34;100.00
22647;BME280;11490;42.726;23.268;2023-11-21T04:23:19;95024.63;;;2.50;100.00
22647;BME280;11490;42.726;23.268;2023-11-21T04:25:47;95030.75;;;2.57;100.00
22647;BME280;11490;42.726;23.268;2023-11-21T04:28:12;95027.53;;;2.55;100.00
22647;BME280;11490;42.726;23.268;2023-11-21T04:30:38;95025.97;;;2.67;100.00
22647;BME280;11490;42.726;23.268;2023-11-21T04:33:04;95032.59;;;2.29;100.00
22647;BME280;11490;42.726;23.268;2023-11-21T04:35:30;95024.56;;;2.37;100.00
22647;BME280;11490;42.726;23.268;2023-11-21T04:37:55;95009.63;;;2.44;100.00
22647;BME280;11490;42.726;23.268;2023-11-21T04:40:22;95027.91;;;2.52;100.00
22647;BME280;11490;42.726;23.268;2023-11-21T04:42:47;95016.72;;;2.44;100.00
22647;BME280;11490;42.726;23.268;2023-11-21T04:45:13;95019.72;;;2.13;100.00
22647;BME280;11490;42.726;23.268;2023-11-21T04:47:38;95012.31;;;2.23;100.00
22647;BME280;11490;42.726;23.268;2023-11-21T04:50:04;95019.13;;;2.17;100.00
22647;BME280;11490;42.726;23.268;2023-11-21T04:52:31;95025.56;;;2.08;100.00
22647;BME280;11490;42.726;23.268;2023-11-21T04:54:57;95026.97;;;2.32;100.00
22647;BME280;11490;42.726;23.268;2023-11-21T04:57:24;95025.31;;;2.31;100.00
22647;BME280;11490;42.726;23.268;2023-11-21T04:59:49;95025.59;;;2.15;100.00
22647;BME280;11490;42.726;23.268;2023-11-21T05:02:15;95025.69;;;2.28;100.00
22647;BME280;11490;42.726;23.268;2023-11-21T05:04:41;95026.28;;;2.51;100.00
22647;BME280;11490;42.726;23.268;2023-11-21T05:07:08;95027.03;;;2.45;100.00
22647;BME280;11490;42.726;23.268;2023-11-21T05:09:33;95032.31;;;2.45;100.00
22647;BME280;11490;42.726;23.268;2023-11-21T05:11:59;95022.25;;;2.55;100.00
22647;BME280;11490;42.726;23.268;2023-11-21T05:14:25;95013.69;;;2.47;100.00
22647;BME280;11490;42.726;23.268;2023-11-21T05:16:50;95012.88;;;2.46;100.00
22647;BME280;11490;42.726;23.268;2023-11-21T05:19:17;95014.56;;;2.54;100.00
22647;BME280;11490;42.726;23.268;2023-11-21T05:21:42;94998.56;;;2.55;100.00
22647;BME280;11490;42.726;23.268;2023-11-21T05:24:08;95002.94;;;2.76;100.00
22647;BME280;11490;42.726;23.268;2023-11-21T05:26:33;95017.97;;;2.89;100.00
22647;BME280;11490;42.726;23.268;2023-11-21T05:28:59;95029.31;;;2.83;100.00
22647;BME280;11490;42.726;23.268;2023-11-21T05:31:24;95036.97;;;2.78;100.00
22647;BME280;11490;42.726;23.268;2023-11-21T05:33:50;95027.75;;;2.60;100.00
22647;BME280;11490;42.726;23.268;2023-11-21T05:36:16;95034.19;;;2.86;100.00
22647;BME280;11490;42.726;23.268;2023-11-21T05:38:41;95030.94;;;2.84;100.00
22647;BME280;11490;42.726;23.268;2023-11-21T05:41:07;95028.69;;;2.81;100.00
22647;BME280;11490;42.726;23.268;2023-11-21T05:43:33;95028.09;;;2.85;100.00
22647;BME280;11490;42.726;23.268;2023-11-21T05:46:00;95023.97;;;2.69;100.00
22647;BME280;11490;42.726;23.268;2023-11-21T05:48:26;95039.94;;;2.68;100.00
22647;BME280;11490;42.726;23.268;2023-11-21T05:50:52;95011.81;;;2.68;100.00
22647;BME280;11490;42.726;23.268;2023-11-21T05:56:20;95003.28;;;3.01;100.00
22647;BME280;11490;42.726;23.268;2023-11-21T05:58:46;95020.28;;;2.98;100.00
22647;BME280;11490;42.726;23.268;2023-11-21T06:01:11;95033.47;;;3.05;100.00
22647;BME280;11490;42.726;23.268;2023-11-21T06:03:38;95047.75;;;3.24;100.00
22647;BME280;11490;42.726;23.268;2023-11-21T06:06:04;95035.97;;;3.26;100.00
22647;BME280;11490;42.726;23.268;2023-11-21T06:08:29;95045.34;;;3.35;100.00
22647;BME280;11490;42.726;23.268;2023-11-21T06:10:55;95033.19;;;3.34;100.00
22647;BME280;11490;42.726;23.268;2023-11-21T06:13:20;95012.06;;;3.21;100.00
22647;BME280;11490;42.726;23.268;2023-11-21T06:15:49;95009.88;;;2.84;100.00
22647;BME280;11490;42.726;23.268;2023-11-21T06:18:17;95009.53;;;3.00;100.00
22647;BME280;11490;42.726;23.268;2023-11-21T06:20:45;95024.91;;;2.96;100.00
22647;BME280;11490;42.726;23.268;2023-11-21T06:23:10;95048.75;;;2.82;100.00
22647;BME280;11490;42.726;23.268;2023-11-21T06:25:36;95053.78;;;2.77;100.00
22647;BME280;11490;42.726;23.268;2023-11-21T06:28:02;95063.03;;;3.00;100.00
22647;BME280;11490;42.726;23.268;2023-11-21T06:30:27;95059.88;;;3.18;100.00
22647;BME280;11490;42.726;23.268;2023-11-21T06:32:54;95038.94;;;3.10;100.00
22647;BME280;11490;42.726;23.268;2023-11-21T06:35:22;95019.25;;;2.99;100.00
22647;BME280;11490;42.726;23.268;2023-11-21T06:37:48;95057.84;;;3.14;100.00
22647;BME280;11490;42.726;23.268;2023-11-21T06:40:14;95062.75;;;3.23;100.00
22647;BME280;11490;42.726;23.268;2023-11-21T06:42:43;95045.31;;;3.22;100.00
22647;BME280;11490;42.726;23.268;2023-11-21T06:45:09;95078.00;;;3.34;100.00
22647;BME280;11490;42.726;23.268;2023-11-21T06:47:36;95061.41;;;3.40;100.00
22647;BME280;11490;42.726;23.268;2023-11-21T06:50:01;95069.53;;;3.45;100.00
22647;BME280;11490;42.726;23.268;2023-11-21T06:52:27;95075.69;;;3.66;100.00
22647;BME280;11490;42.726;23.268;2023-11-21T06:54:52;95073.28;;;3.71;100.00
22647;BME280;11490;42.726;23.268;2023-11-21T06:57:18;95064.56;;;3.83;100.00
22647;BME280;11490;42.726;23.268;2023-11-21T06:59:44;95066.03;;;4.12;100.00
22647;BME280;11490;42.726;23.268;2023-11-21T07:02:09;95071.56;;;4.31;100.00
22647;BME280;11490;42.726;23.268;2023-11-21T07:04:38;95072.75;;;4.21;100.00
22647;BME280;11490;42.726;23.268;2023-11-21T07:07:04;95075.19;;;4.43;100.00
22647;BME280;11490;42.726;23.268;2023-11-21T07:09:30;95071.53;;;4.44;100.00
22647;BME280;11490;42.726;23.268;2023-11-21T07:11:56;95050.03;;;4.47;100.00
22647;BME280;11490;42.726;23.268;2023-11-21T07:14:22;95022.81;;;4.53;100.00
22647;BME280;11490;42.726;23.268;2023-11-21T07:16:47;95064.63;;;4.95;100.00
22647;BME280;11490;42.726;23.268;2023-11-21T07:19:13;95056.53;;;4.71;100.00
22647;BME280;11490;42.726;23.268;2023-11-21T07:21:39;95059.91;;;4.97;100.00
22647;BME280;11490;42.726;23.268;2023-11-21T07:24:05;95071.84;;;5.20;100.00
22647;BME280;11490;42.726;23.268;2023-11-21T07:26:31;95071.69;;;5.15;100.00
22647;BME280;11490;42.726;23.268;2023-11-21T07:28:57;95074.31;;;5.15;100.00
22647;BME280;11490;42.726;23.268;2023-11-21T07:31:23;95079.56;;;5.28;100.00
22647;BME280;11490;42.726;23.268;2023-11-21T07:33:49;95082.44;;;5.26;100.00
22647;BME280;11490;42.726;23.268;2023-11-21T07:36:16;95069.00;;;5.28;100.00
22647;BME280;11490;42.726;23.268;2023-11-21T07:38:43;95075.84;;;5.49;100.00
22647;BME280;11490;42.726;23.268;2023-11-21T07:41:10;95078.75;;;5.34;100.00
22647;BME280;11490;42.726;23.268;2023-11-21T07:43:36;95068.31;;;5.46;100.00
22647;BME280;11490;42.726;23.268;2023-11-21T07:46:02;95067.28;;;5.53;100.00
22647;BME280;11490;42.726;23.268;2023-11-21T07:48:32;95062.66;;;5.87;100.00
22647;BME280;11490;42.726;23.268;2023-11-21T07:50:58;95059.53;;;6.34;100.00
22647;BME280;11490;42.726;23.268;2023-11-21T07:53:27;95063.44;;;7.00;97.61
22647;BME280;11490;42.726;23.268;2023-11-21T07:55:55;95069.53;;;7.61;94.47
22647;BME280;11490;42.726;23.268;2023-11-21T07:58:21;95070.28;;;7.98;91.87
22647;BME280;11490;42.726;23.268;2023-11-21T08:00:46;95060.06;;;8.13;89.53
22647;BME280;11490;42.726;23.268;2023-11-21T08:03:13;95052.56;;;8.10;90.19
22647;BME280;11490;42.726;23.268;2023-11-21T08:05:39;95053.47;;;8.16;89.25
22647;BME280;11490;42.726;23.268;2023-11-21T08:08:04;95054.53;;;7.67;90.88
22647;BME280;11490;42.726;23.268;2023-11-21T08:10:30;95045.84;;;8.08;91.61
22647;BME280;11490;42.726;23.268;2023-11-21T08:12:55;95053.31;;;7.99;89.18
22647;BME280;11490;42.726;23.268;2023-11-21T08:15:21;95046.00;;;8.25;89.69
22647;BME280;11490;42.726;23.268;2023-11-21T08:17:47;95060.69;;;8.57;88.72
22647;BME280;11490;42.726;23.268;2023-11-21T08:20:15;95040.81;;;8.71;86.25
22647;BME280;11490;42.726;23.268;2023-11-21T08:22:42;95055.03;;;8.77;85.88
22647;BME280;11490;42.726;23.268;2023-11-21T08:25:08;95053.41;;;8.64;86.32
22647;BME280;11490;42.726;23.268;2023-11-21T08:27:34;95058.13;;;8.62;86.53
22647;BME280;11490;42.726;23.268;2023-11-21T08:30:00;95067.66;;;8.81;85.89
22647;BME280;11490;42.726;23.268;2023-11-21T08:32:26;95058.66;;;9.06;85.97
22647;BME280;11490;42.726;23.268;2023-11-21T08:34:51;95063.97;;;9.29;85.99
22647;BME280;11490;42.726;23.268;2023-11-21T08:37:17;95052.94;;;9.14;85.03
22647;BME280;11490;42.726;23.268;2023-11-21T08:46:19;94951.78;;;8.85;83.95
22647;BME280;11490;42.726;23.268;2023-11-21T09:05:37;94982.72;;;9.15;84.69
22647;BME280;11490;42.726;23.268;2023-11-21T09:08:11;94911.81;;;8.57;85.02
22647;BME280;11490;42.726;23.268;2023-11-21T09:17:06;94886.19;;;7.74;89.56
22647;BME280;11490;42.726;23.268;2023-11-21T09:19:43;94875.72;;;7.91;89.28
22647;BME280;11490;42.726;23.268;2023-11-21T09:28:39;94885.38;;;7.32;94.57
22647;BME280;11490;42.726;23.268;2023-11-21T09:31:05;94923.91;;;7.65;94.45
22647;BME280;11490;42.726;23.268;2023-11-21T09:33:34;94928.69;;;7.86;94.82
22647;BME280;11490;42.726;23.268;2023-11-21T09:35:59;94932.22;;;8.10;93.51
22647;BME280;11490;42.726;23.268;2023-11-21T09:38:25;94936.50;;;8.11;92.23
22647;BME280;11490;42.726;23.268;2023-11-21T09:40:51;94909.91;;;7.99;92.62
22647;BME280;11490;42.726;23.268;2023-11-21T09:43:19;94921.25;;;8.30;92.00
22647;BME280;11490;42.726;23.268;2023-11-21T09:45:47;94907.56;;;8.33;90.15
22647;BME280;11490;42.726;23.268;2023-11-21T09:48:14;94885.81;;;8.13;90.96
22647;BME280;11490;42.726;23.268;2023-11-21T09:50:47;94866.63;;;8.10;90.65
22647;BME280;11490;42.726;23.268;2023-11-21T09:53:13;94882.44;;;8.52;90.66
22647;BME280;11490;42.726;23.268;2023-11-21T09:55:44;94865.47;;;8.53;90.58
22647;BME280;11490;42.726;23.268;2023-11-21T09:58:10;94874.56;;;8.80;90.37
22647;BME280;11490;42.726;23.268;2023-11-21T10:00:40;94873.63;;;8.86;89.54
22647;BME280;11490;42.726;23.268;2023-11-21T10:03:06;94862.63;;;8.95;88.57
22647;BME280;11490;42.726;23.268;2023-11-21T10:05:32;94847.13;;;8.92;88.24
22647;BME280;11490;42.726;23.268;2023-11-21T10:07:59;94850.25;;;9.29;87.67
22647;BME280;11490;42.726;23.268;2023-11-21T10:10:25;94872.91;;;9.59;86.49
22647;BME280;11490;42.726;23.268;2023-11-21T10:12:55;94863.44;;;9.69;86.79
22647;BME280;11490;42.726;23.268;2023-11-21T10:15:23;94866.38;;;9.84;85.90
22647;BME280;11490;42.726;23.268;2023-11-21T10:17:50;94843.88;;;9.75;84.49
22647;BME280;11490;42.726;23.268;2023-11-21T10:20:19;94856.78;;;9.83;84.65
22647;BME280;11490;42.726;23.268;2023-11-21T10:22:45;94854.38;;;9.98;84.78
22647;BME280;11490;42.726;23.268;2023-11-21T10:25:12;94843.94;;;9.80;84.20
22647;BME280;11490;42.726;23.268;2023-11-21T10:27:40;94838.69;;;9.85;84.58
22647;BME280;11490;42.726;23.268;2023-11-21T10:30:10;94807.00;;;9.67;85.28
22647;BME280;11490;42.726;23.268;2023-11-21T10:32:40;94849.44;;;9.28;85.68
22647;BME280;11490;42.726;23.268;2023-11-21T10:35:09;94800.88;;;9.21;85.88
22647;BME280;11490;42.726;23.268;2023-11-21T10:37:41;94781.50;;;9.09;86.38
22647;BME280;11490;42.726;23.268;2023-11-21T10:40:07;94819.63;;;8.86;87.57
22647;BME280;11490;42.726;23.268;2023-11-21T10:42:33;94826.03;;;9.13;87.65
22647;BME280;11490;42.726;23.268;2023-11-21T10:44:59;94803.44;;;9.16;88.27
22647;BME280;11490;42.726;23.268;2023-11-21T10:47:25;94827.56;;;9.26;88.32
22647;BME280;11490;42.726;23.268;2023-11-21T10:49:52;94792.97;;;9.26;88.79
22647;BME280;11490;42.726;23.268;2023-11-21T10:52:21;94749.00;;;9.07;86.80
22647;BME280;11490;42.726;23.268;2023-11-21T10:54:47;94802.47;;;9.22;86.65
22647;BME280;11490;42.726;23.268;2023-11-21T10:57:17;94795.38;;;9.11;85.78
22647;BME280;11490;42.726;23.268;2023-11-21T10:59:46;94781.56;;;9.14;84.68
22647;BME280;11490;42.726;23.268;2023-11-21T11:02:26;94763.91;;;9.08;86.12
22647;BME280;11490;42.726;23.268;2023-11-21T11:04:54;94774.59;;;9.24;87.18
22647;BME280;11490;42.726;23.268;2023-11-21T11:07:27;94769.13;;;9.31;86.20
22647;BME280;11490;42.726;23.268;2023-11-21T11:09:54;94735.69;;;9.07;85.71
22647;BME280;11490;42.726;23.268;2023-11-21T11:12:20;94755.66;;;9.21;86.78
22647;BME280;11490;42.726;23.268;2023-11-21T11:14:46;94730.94;;;9.09;86.38
22647;BME280;11490;42.726;23.268;2023-11-21T11:17:13;94728.28;;;9.09;85.35
22647;BME280;11490;42.726;23.268;2023-11-21T11:19:38;94758.63;;;9.24;85.24
22647;BME280;11490;42.726;23.268;2023-11-21T11:22:29;94767.50;;;9.30;84.89
22647;BME280;11490;42.726;23.268;2023-11-21T11:33:34;94749.94;;;9.29;84.82
22647;BME280;11490;42.726;23.268;2023-11-21T11:36:06;94744.38;;;9.47;86.24
22647;BME280;11490;42.726;23.268;2023-11-21T11:38:33;94735.75;;;9.40;86.94
22647;BME280;11490;42.726;23.268;2023-11-21T11:41:05;94764.16;;;9.51;86.31
22647;BME280;11490;42.726;23.268;2023-11-21T11:43:31;94769.78;;;9.55;86.56
22647;BME280;11490;42.726;23.268;2023-11-21T11:46:09;94764.16;;;9.51;87.54
22647;BME280;11490;42.726;23.268;2023-11-21T11:48:38;94764.44;;;9.38;89.56
22647;BME280;11490;42.726;23.268;2023-11-21T11:53:41;94753.00;;;9.38;89.78
22647;BME280;11490;42.726;23.268;2023-11-21T11:56:29;94769.47;;;9.51;88.85
22647;BME280;11490;42.726;23.268;2023-11-21T11:58:58;94723.16;;;9.19;90.48
22647;BME280;11490;42.726;23.268;2023-11-21T12:01:27;94713.94;;;9.10;92.45
22647;BME280;11490;42.726;23.268;2023-11-21T12:06:40;94729.41;;;8.96;95.90
22647;BME280;11490;42.726;23.268;2023-11-21T12:09:17;94758.78;;;9.18;97.04
22647;BME280;11490;42.726;23.268;2023-11-21T12:11:43;94727.56;;;8.97;98.52
22647;BME280;11490;42.726;23.268;2023-11-21T12:14:09;94744.63;;;9.01;99.56
22647;BME280;11490;42.726;23.268;2023-11-21T12:16:37;94707.88;;;8.81;100.00
22647;BME280;11490;42.726;23.268;2023-11-21T12:19:03;94756.59;;;9.15;100.00
22647;BME280;11490;42.726;23.268;2023-11-21T12:21:31;94716.47;;;8.71;100.00
22647;BME280;11490;42.726;23.268;2023-11-21T12:24:00;94697.28;;;8.69;100.00
22647;BME280;11490;42.726;23.268;2023-11-21T12:26:26;94706.94;;;8.75;100.00
22647;BME280;11490;42.726;23.268;2023-11-21T12:28:52;94679.53;;;8.58;100.00
22647;BME280;11490;42.726;23.268;2023-11-21T12:31:21;94722.72;;;8.65;100.00
22647;BME280;11490;42.726;23.268;2023-11-21T12:33:46;94713.81;;;8.43;100.00
22647;BME280;11490;42.726;23.268;2023-11-21T12:36:13;94740.03;;;8.68;100.00
22647;BME280;11490;42.726;23.268;2023-11-21T12:38:38;94687.91;;;8.50;100.00
22647;BME280;11490;42.726;23.268;2023-11-21T12:41:04;94741.50;;;8.75;100.00
22647;BME280;11490;42.726;23.268;2023-11-21T12:43:31;94704.66;;;8.51;100.00
22647;BME280;11490;42.726;23.268;2023-11-21T12:46:07;94691.38;;;8.39;100.00
22647;BME280;11490;42.726;23.268;2023-11-21T12:48:37;94689.16;;;8.47;100.00
22647;BME280;11490;42.726;23.268;2023-11-21T12:51:05;94698.06;;;8.30;100.00
22647;BME280;11490;42.726;23.268;2023-11-21T12:53:32;94720.44;;;8.57;100.00
22647;BME280;11490;42.726;23.268;2023-11-21T12:56:05;94715.59;;;8.54;100.00
22647;BME280;11490;42.726;23.268;2023-11-21T12:58:31;94682.84;;;8.37;100.00
22647;BME280;11490;42.726;23.268;2023-11-21T13:01:01;94700.19;;;8.28;100.00
22647;BME280;11490;42.726;23.268;2023-11-21T13:03:29;94694.41;;;8.31;100.00
22647;BME280;11490;42.726;23.268;2023-11-21T13:05:55;94698.88;;;8.30;100.00
22647;BME280;11490;42.726;23.268;2023-11-21T13:08:23;94669.72;;;8.19;100.00
22647;BME280;11490;42.726;23.268;2023-11-21T13:10:52;94705.25;;;8.41;100.00
22647;BME280;11490;42.726;23.268;2023-11-21T13:13:19;94692.34;;;8.33;100.00
22647;BME280;11490;42.726;23.268;2023-11-21T13:18:14;94694.28;;;8.37;100.00
22647;BME280;11490;42.726;23.268;2023-11-21T13:20:41;94684.13;;;8.34;100.00
22647;BME280;11490;42.726;23.268;2023-11-21T13:23:09;94696.84;;;8.32;100.00
22647;BME280;11490;42.726;23.268;2023-11-21T13:25:39;94666.75;;;8.03;100.00
22647;BME280;11490;42.726;23.268;2023-11-21T13:28:07;94691.06;;;8.35;100.00
22647;BME280;11490;42.726;23.268;2023-11-21T13:30:33;94665.22;;;8.19;100.00
22647;BME280;11490;42.726;23.268;2023-11-21T13:33:02;94636.28;;;7.94;100.00
22647;BME280;11490;42.726;23.268;2023-11-21T13:35:31;94647.94;;;8.05;100.00
22647;BME280;11490;42.726;23.268;2023-11-21T13:38:16;94642.34;;;8.18;100.00
22647;BME280;11490;42.726;23.268;2023-11-21T13:40:52;94638.50;;;8.26;100.00
22647;BME280;11490;42.726;23.268;2023-11-21T13:43:21;94638.78;;;8.13;100.00
22647;BME280;11490;42.726;23.268;2023-11-21T13:45:54;94666.44;;;8.40;100.00
22647;BME280;11490;42.726;23.268;2023-11-21T13:48:29;94669.97;;;8.45;100.00